Time;durP1;ratioP1;P1;durP2;ratioP2;P2;SDS_P1;SDS_P2;PMS_P1;PMS_P2;Temp;Humidity;BMP_temperature;BMP_pressure;BME280_temperature;BME280_humidity;BME280_pressure;Samples;Min_cycle;Max_cycle;Signal;HPM_P1;HPM_P2
2021/04/19 00:02:06;;;;;;;14.23;7.10;;;12.10;69.80;;;;;;5015800;28;20042;-61
2021/04/19 00:04:32;;;;;;;11.35;6.72;;;12.10;69.90;;;;;;5015200;28;20072;-61
2021/04/19 00:06:58;;;;;;;13.35;8.07;;;12.10;70.00;;;;;;5015893;28;20034;-61
2021/04/19 00:09:23;;;;;;;15.10;8.10;;;12.00;70.20;;;;;;5015552;28;20120;-61
2021/04/19 00:11:49;;;;;;;16.88;7.88;;;12.00;70.30;;;;;;5015001;28;20026;-61
2021/04/19 00:14:15;;;;;;;14.82;7.97;;;12.00;70.50;;;;;;5015545;28;20397;-61
2021/04/19 00:16:40;;;;;;;16.02;8.27;;;12.00;70.60;;;;;;5014858;28;20033;-62
2021/04/19 00:19:06;;;;;;;20.05;8.52;;;12.00;70.90;;;;;;5015706;28;20038;-61
2021/04/19 00:21:32;;;;;;;14.82;8.13;;;12.00;71.00;;;;;;5015438;28;20049;-61
2021/04/19 00:23:58;;;;;;;13.88;7.75;;;12.00;71.10;;;;;;5014682;28;20026;-61
2021/04/19 00:26:23;;;;;;;17.30;7.28;;;12.00;71.30;;;;;;5015452;28;20556;-61
2021/04/19 00:28:49;;;;;;;17.60;8.23;;;11.90;71.40;;;;;;5015026;28;20030;-61
2021/04/19 00:31:15;;;;;;;17.25;8.32;;;11.90;71.40;;;;;;5014023;28;20038;-61
2021/04/19 00:33:41;;;;;;;20.55;7.57;;;11.90;71.40;;;;;;5015331;28;20037;-61
2021/04/19 00:36:07;;;;;;;27.15;9.90;;;11.90;71.60;;;;;;5015389;28;20493;-61
2021/04/19 00:38:33;;;;;;;14.75;7.65;;;11.90;72.30;;;;;;4996728;28;20049;-61
2021/04/19 00:41:01;;;;;;;28.90;7.90;;;11.90;71.80;;;;;;5015081;28;20382;-61
2021/04/19 00:43:27;;;;;;;16.77;7.55;;;11.90;72.00;;;;;;5014989;28;20485;-61
2021/04/19 00:46:01;;;;;;;14.18;8.48;;;11.90;72.00;;;;;;5014264;28;20385;-61
2021/04/19 00:48:28;;;;;;;14.60;7.72;;;11.90;72.10;;;;;;5014992;28;20457;-61
2021/04/19 00:50:55;;;;;;;19.20;9.25;;;11.90;72.30;;;;;;5014772;28;20024;-60
2021/04/19 00:53:23;;;;;;;18.48;8.70;;;11.90;72.30;;;;;;5014341;28;20057;-61
2021/04/19 00:55:49;;;;;;;17.52;8.85;;;11.90;72.50;;;;;;5014696;28;20054;-60
2021/04/19 00:58:18;;;;;;;19.60;9.05;;;11.90;72.50;;;;;;5014775;28;20447;-61
2021/04/19 01:00:44;;;;;;;16.73;8.95;;;11.90;72.50;;;;;;5013827;28;20042;-61
2021/04/19 01:03:10;;;;;;;16.95;8.98;;;11.90;72.50;;;;;;5014634;28;20113;-61
2021/04/19 01:05:39;;;;;;;22.63;8.68;;;11.80;72.50;;;;;;5014536;28;20121;-61
2021/04/19 01:08:07;;;;;;;16.52;9.05;;;11.80;72.60;;;;;;5013937;28;20037;-61
2021/04/19 01:10:34;;;;;;;16.67;8.70;;;11.80;72.70;;;;;;5014363;28;20049;-61
2021/04/19 01:13:00;;;;;;;15.75;9.25;;;11.80;72.70;;;;;;4996313;28;20025;-61
2021/04/19 01:15:26;;;;;;;21.10;9.48;;;11.80;72.80;;;;;;5014656;28;20033;-61
2021/04/19 01:17:53;;;;;;;18.20;9.00;;;11.80;73.00;;;;;;5014458;28;20033;-61
2021/04/19 01:20:24;;;;;;;19.58;9.63;;;11.70;73.00;;;;;;4996096;28;20168;-61
2021/04/19 01:22:50;;;;;;;20.70;10.38;;;11.70;73.30;;;;;;5014226;28;20029;-61
2021/04/19 01:25:19;;;;;;;24.63;11.50;;;11.60;73.40;;;;;;5014083;28;20117;-61
2021/04/19 01:27:47;;;;;;;22.40;10.65;;;11.60;73.90;;;;;;5013502;28;20045;-60
2021/04/19 01:30:15;;;;;;;19.85;10.63;;;11.60;74.20;;;;;;5014224;28;20092;-61
2021/04/19 01:32:43;;;;;;;27.80;11.75;;;11.50;74.40;;;;;;5014284;28;20030;-61
2021/04/19 01:35:10;;;;;;;25.40;11.65;;;11.60;74.70;;;;;;4999380;28;20038;-61
2021/04/19 01:37:37;;;;;;;21.77;10.10;;;11.50;74.90;;;;;;5014045;28;20492;-61
2021/04/19 01:40:05;;;;;;;19.48;11.40;;;11.50;75.70;;;;;;5013715;28;20508;-61
2021/04/19 01:42:31;;;;;;;29.85;11.38;;;11.50;75.40;;;;;;5013332;28;20026;-61
2021/04/19 01:44:57;;;;;;;22.60;11.48;;;11.60;75.80;;;;;;5013463;28;20117;-61
2021/04/19 01:47:22;;;;;;;21.80;11.70;;;11.60;76.00;;;;;;5013871;28;20385;-61
2021/04/19 01:49:48;;;;;;;26.35;11.25;;;11.60;76.20;;;;;;5013202;28;20409;-61
2021/04/19 01:52:14;;;;;;;28.50;11.38;;;11.60;76.20;;;;;;4996085;28;20060;-61
2021/04/19 01:54:41;;;;;;;21.40;11.15;;;11.60;76.30;;;;;;4996086;28;20026;-61
2021/04/19 01:57:07;;;;;;;23.75;10.85;;;11.60;76.40;;;;;;5012821;28;20552;-61
2021/04/19 01:59:34;;;;;;;24.92;11.02;;;11.60;76.40;;;;;;4995990;28;20117;-61
2021/04/19 02:02:18;;;;;;;24.38;11.95;;;11.60;76.50;;;;;;4995782;28;20057;-61
2021/04/19 02:05:27;;;;;;;30.00;10.93;;;11.60;76.60;;;;;;4996037;28;20381;-61
2021/04/19 02:08:02;;;;;;;24.42;11.38;;;11.70;76.70;;;;;;5013442;28;20053;-61
2021/04/19 02:10:34;;;;;;;26.08;11.85;;;11.60;76.80;;;;;;4994760;28;20046;-61
2021/04/19 02:13:16;;;;;;;21.83;11.02;;;11.60;76.90;;;;;;5013196;28;20022;-64
2021/04/19 02:16:06;;;;;;;23.58;11.15;;;11.60;77.00;;;;;;4994014;28;20026;-62
2021/04/19 02:18:48;;;;;;;21.15;11.80;;;11.60;77.00;;;;;;5012222;28;20030;-62
2021/04/19 02:21:20;;;;;;;21.85;11.05;;;11.50;76.90;;;;;;4995271;28;20041;-62
2021/04/19 02:24:04;;;;;;;21.60;11.48;;;11.60;77.00;;;;;;4994899;28;20397;-67
2021/04/19 02:26:32;;;;;;;22.70;11.82;;;11.60;77.00;;;;;;5013227;28;20495;-61
2021/04/19 02:29:05;;;;;;;23.42;11.65;;;11.60;76.80;;;;;;5013133;28;20041;-61
2021/04/19 02:31:37;;;;;;;23.63;11.27;;;11.60;76.80;;;;;;4994943;28;20069;-61
2021/04/19 02:34:12;;;;;;;;;;;11.60;76.70;;;;;;4995751;28;20416;-61
2021/04/19 02:36:45;;;;;;;21.00;11.75;;;11.60;76.30;;;;;;5012782;28;19972;-61
2021/04/19 02:39:13;;;;;;;24.95;11.52;;;11.50;76.20;;;;;;5012045;28;20036;-61
2021/04/19 02:41:41;;;;;;;22.38;11.43;;;11.50;76.30;;;;;;5012607;28;20038;-61
2021/04/19 02:44:09;;;;;;;20.77;11.30;;;11.50;76.40;;;;;;5012580;28;20068;-61
2021/04/19 02:46:53;;;;;;;21.45;11.68;;;11.50;76.40;;;;;;4995129;28;20038;-61
2021/04/19 02:49:30;;;;;;;23.90;11.45;;;11.50;76.30;;;;;;4992079;28;20045;-61
2021/04/19 02:51:57;;;;;;;19.58;11.55;;;11.50;76.40;;;;;;5011834;28;20067;-61
2021/04/19 02:54:24;;;;;;;21.80;11.00;;;11.50;76.30;;;;;;5011496;28;20026;-62
2021/04/19 02:56:51;;;;;;;24.55;10.88;;;11.50;76.30;;;;;;5016691;28;20034;-61
2021/04/19 02:59:24;;;;;;;21.65;10.73;;;11.50;76.20;;;;;;4995508;28;20517;-61
2021/04/19 03:01:55;;;;;;;20.50;11.10;;;11.50;76.10;;;;;;5016286;28;20385;-61
2021/04/19 03:04:31;;;;;;;20.23;10.82;;;11.50;75.90;;;;;;4998770;28;20034;-61
2021/04/19 03:07:09;;;;;;;20.52;11.23;;;11.50;75.70;;;;;;4985811;28;20036;-61
2021/04/19 03:09:41;;;;;;;22.02;11.02;;;11.50;75.50;;;;;;5015211;28;20026;-61
2021/04/19 03:12:09;;;;;;;18.90;10.43;;;11.50;75.50;;;;;;4999244;28;20084;-61
2021/04/19 03:14:47;;;;;;;22.92;10.95;;;11.50;75.40;;;;;;4998434;28;20437;-61
2021/04/19 03:17:22;;;;;;;20.08;10.27;;;11.50;75.40;;;;;;5003561;28;20354;-61
2021/04/19 03:20:23;;;;;;;22.98;11.25;;;11.40;75.30;;;;;;4995360;28;20077;-61
2021/04/19 03:23:08;;;;;;;19.33;10.73;;;11.40;75.10;;;;;;4998981;28;20038;-61
2021/04/19 03:25:43;;;;;;;21.63;10.40;;;11.40;75.00;;;;;;4998824;28;20452;-61
2021/04/19 03:28:12;;;;;;;20.45;10.82;;;11.40;74.90;;;;;;5015925;28;20022;-61
2021/04/19 03:30:39;;;;;;;22.10;10.63;;;11.40;74.90;;;;;;5016212;28;20032;-61
2021/04/19 03:33:12;;;;;;;19.42;9.27;;;11.40;74.80;;;;;;4998884;28;20033;-61
2021/04/19 03:35:40;;;;;;;20.33;10.35;;;11.40;74.80;;;;;;4997891;28;20512;-61
2021/04/19 03:38:14;;;;;;;19.23;10.10;;;11.40;74.80;;;;;;5016405;28;20400;-61
2021/04/19 03:40:41;;;;;;;18.17;10.57;;;11.40;74.80;;;;;;4997922;28;20045;-61
2021/04/19 03:43:15;;;;;;;21.80;10.18;;;11.40;74.80;;;;;;4998940;28;20385;-61
2021/04/19 03:45:53;;;;;;;25.40;9.88;;;11.40;74.80;;;;;;5016168;28;20036;-61
2021/04/19 03:48:40;;;;;;;25.42;11.65;;;11.40;74.80;;;;;;5015460;28;20072;-61
2021/04/19 03:51:16;;;;;;;20.45;10.23;;;11.40;74.70;;;;;;4998340;28;20037;-61
2021/04/19 03:53:49;;;;;;;;;;;11.30;74.60;;;;;;4998932;28;20465;-61
2021/04/19 03:56:17;;;;;;;21.30;10.23;;;11.30;74.50;;;;;;4997563;28;19911;-61
2021/04/19 03:58:55;;;;;;;23.20;11.07;;;11.30;74.30;;;;;;4998331;28;20461;-61
2021/04/19 04:01:21;;;;;;;19.30;10.57;;;11.30;74.50;;;;;;4998047;28;20044;-61
2021/04/19 04:03:54;;;;;;;22.90;11.30;;;11.20;74.60;;;;;;4997613;28;20088;-61
2021/04/19 04:06:31;;;;;;;20.27;11.10;;;11.20;74.80;;;;;;4983469;28;20034;-61
2021/04/19 04:08:58;;;;;;;22.33;11.15;;;11.20;75.00;;;;;;4997483;28;20541;-61
2021/04/19 04:11:25;;;;;;;21.75;11.77;;;11.20;75.00;;;;;;4994436;28;20074;-61
2021/04/19 04:14:03;;;;;;;22.60;11.35;;;11.10;75.10;;;;;;4994883;28;20040;-61
2021/04/19 04:16:30;;;;;;;17.42;10.57;;;11.10;75.10;;;;;;4993938;28;20433;-61
2021/04/19 04:19:08;;;;;;;18.45;9.70;;;11.10;75.10;;;;;;4994794;28;20026;-61
2021/04/19 04:21:43;;;;;;;23.55;10.73;;;11.10;75.00;;;;;;4994496;28;20038;-61
2021/04/19 04:24:20;;;;;;;22.05;10.90;;;11.10;74.90;;;;;;4993933;28;20029;-61
2021/04/19 04:26:47;;;;;;;28.75;11.52;;;11.10;74.80;;;;;;4994559;28;20130;-61
2021/04/19 04:29:12;;;;;;;20.38;10.95;;;11.10;74.80;;;;;;4994445;28;20023;-61
2021/04/19 04:31:43;;;;;;;20.25;11.40;;;11.10;74.80;;;;;;4993870;28;20045;-61
2021/04/19 04:34:13;;;;;;;19.88;10.35;;;11.10;74.80;;;;;;4994382;28;20022;-61
2021/04/19 04:36:39;;;;;;;20.88;10.40;;;11.10;74.80;;;;;;4994436;28;20153;-61
2021/04/19 04:39:11;;;;;;;23.30;10.25;;;11.10;74.80;;;;;;4993613;28;20027;-61
2021/04/19 04:41:44;;;;;;;39.83;11.95;;;11.10;74.80;;;;;;4994393;28;20046;-61
2021/04/19 04:44:15;;;;;;;19.00;10.95;;;11.10;74.80;;;;;;4994925;28;20062;-61
2021/04/19 04:46:51;;;;;;;21.55;10.27;;;11.10;74.80;;;;;;4995660;28;20030;-61
2021/04/19 04:49:27;;;;;;;17.02;9.63;;;11.10;74.80;;;;;;4995464;28;20033;-61
2021/04/19 04:51:57;;;;;;;21.88;10.90;;;11.00;74.80;;;;;;4994669;28;20030;-61
2021/04/19 04:54:24;;;;;;;25.85;9.98;;;11.10;74.90;;;;;;4993941;28;20022;-61
2021/04/19 04:56:53;;;;;;;18.70;9.93;;;11.10;74.90;;;;;;4995293;28;20465;-61
2021/04/19 04:59:23;;;;;;;22.38;10.20;;;11.10;75.00;;;;;;4994419;28;20044;-61
2021/04/19 05:01:50;;;;;;;22.33;8.88;;;11.10;75.10;;;;;;4993525;28;20030;-60
2021/04/19 05:04:16;;;;;;;19.70;9.68;;;11.10;75.10;;;;;;4994897;28;20026;-61
2021/04/19 05:06:43;;;;;;;19.10;9.35;;;11.00;75.10;;;;;;4994011;28;20540;-61
2021/04/19 05:09:10;;;;;;;25.38;9.60;;;11.00;75.20;;;;;;4995256;28;20026;-62
2021/04/19 05:11:38;;;;;;;17.15;9.35;;;11.00;75.90;;;;;;5010313;28;20429;-61
2021/04/19 05:14:04;;;;;;;21.15;9.30;;;11.00;75.60;;;;;;5013560;28;20061;-61
2021/04/19 05:16:31;;;;;;;17.90;9.75;;;11.00;75.70;;;;;;4994136;28;20119;-61
2021/04/19 05:19:01;;;;;;;23.33;9.70;;;11.00;75.90;;;;;;4997034;28;20397;-63
2021/04/19 05:21:27;;;;;;;16.25;8.95;;;11.00;76.30;;;;;;5002015;28;20041;-61
2021/04/19 05:23:53;;;;;;;18.85;9.50;;;11.00;76.50;;;;;;5009943;28;20363;-61
2021/04/19 05:26:20;;;;;;;16.80;9.65;;;10.90;76.80;;;;;;5009198;28;20548;-63
2021/04/19 05:28:47;;;;;;;19.17;9.70;;;10.90;77.20;;;;;;5009921;28;20113;-61
2021/04/19 05:31:13;;;;;;;20.80;10.93;;;11.00;77.70;;;;;;5009827;28;20025;-61
2021/04/19 05:33:39;;;;;;;23.75;10.85;;;10.90;77.90;;;;;;5009543;28;20034;-62
2021/04/19 05:36:12;;;;;;;22.83;10.15;;;10.90;78.20;;;;;;5009540;28;20026;-61
2021/04/19 05:38:42;;;;;;;22.77;10.82;;;11.00;78.80;;;;;;4995640;28;20034;-61
2021/04/19 05:41:10;;;;;;;15.60;9.60;;;11.00;79.00;;;;;;4997185;28;20531;-61
2021/04/19 05:43:36;;;;;;;19.08;10.85;;;11.00;79.10;;;;;;4995161;28;20038;-61
2021/04/19 05:46:02;;;;;;;23.65;10.77;;;11.00;79.20;;;;;;5010743;28;20032;-61
2021/04/19 05:48:28;;;;;;;21.10;10.32;;;11.10;79.40;;;;;;5013205;28;20030;-61
2021/04/19 05:51:01;;;;;;;22.73;10.55;;;11.10;79.40;;;;;;5013568;28;20084;-61
2021/04/19 05:53:27;;;;;;;21.73;9.63;;;11.10;79.50;;;;;;5013548;28;20084;-65
2021/04/19 05:55:55;;;;;;;20.08;10.45;;;11.10;79.50;;;;;;5012324;28;20038;-63
2021/04/19 05:58:28;;;;;;;21.50;10.82;;;11.20;79.60;;;;;;5012687;28;20076;-62
2021/04/19 06:01:04;;;;;;;23.60;11.02;;;11.30;79.80;;;;;;5012994;28;20468;-61
2021/04/19 06:03:33;;;;;;;25.10;10.68;;;11.20;79.60;;;;;;4994003;28;20054;-60
2021/04/19 06:06:22;;;;;;;17.38;10.05;;;11.30;79.80;;;;;;5011988;28;20150;-61
2021/04/19 06:08:59;;;;;;;22.38;11.38;;;11.30;79.80;;;;;;4993527;28;20036;-61
2021/04/19 06:11:54;;;;;;;24.67;12.48;;;11.40;79.70;;;;;;4994120;28;20064;-62
2021/04/19 06:14:32;;;;;;;26.73;12.07;;;11.40;79.60;;;;;;4994371;28;20029;-61
2021/04/19 06:17:01;;;;;;;25.33;12.63;;;11.40;79.30;;;;;;5007513;28;20517;-61
2021/04/19 06:19:28;;;;;;;27.35;12.77;;;11.40;80.00;;;;;;5003125;28;20030;-61
2021/04/19 06:21:54;;;;;;;25.13;12.43;;;11.40;79.50;;;;;;5013333;28;20133;-61
2021/04/19 06:24:21;;;;;;;21.80;12.73;;;11.50;79.50;;;;;;5012675;28;20538;-61
2021/04/19 06:26:47;;;;;;;25.95;13.73;;;11.50;79.50;;;;;;5013235;28;20120;-61
2021/04/19 06:29:13;;;;;;;23.38;12.43;;;11.50;79.70;;;;;;5012550;28;20465;-62
2021/04/19 06:31:48;;;;;;;25.08;11.63;;;11.50;79.60;;;;;;5012587;28;20034;-61
2021/04/19 06:34:15;;;;;;;25.60;13.05;;;11.50;79.50;;;;;;5013272;28;20033;-61
2021/04/19 06:36:43;;;;;;;24.83;12.73;;;11.50;79.30;;;;;;5012630;28;20030;-61
2021/04/19 06:39:13;;;;;;;25.65;13.52;;;11.50;79.60;;;;;;5012951;28;20037;-61
2021/04/19 06:41:39;;;;;;;26.48;12.10;;;11.50;79.70;;;;;;5013188;28;20034;-61
2021/04/19 06:44:06;;;;;;;21.33;10.90;;;11.60;79.20;;;;;;5012276;28;20045;-61
2021/04/19 06:46:33;;;;;;;26.00;11.93;;;11.60;79.00;;;;;;5013031;28;20060;-61
2021/04/19 06:48:59;;;;;;;29.33;12.32;;;11.60;78.80;;;;;;5013000;28;20034;-61
2021/04/19 06:51:25;;;;;;;14.95;6.55;;;11.60;78.80;;;;;;5012510;28;20026;-61
2021/04/19 06:53:56;;;;;;;22.95;9.13;;;11.70;78.50;;;;;;5013174;28;20022;-61
2021/04/19 06:56:28;;;;;;;14.77;7.05;;;11.70;77.40;;;;;;5012937;28;20162;-61
2021/04/19 06:58:56;;;;;;;16.15;8.35;;;11.70;77.10;;;;;;5012238;28;20029;-61
2021/04/19 07:01:25;;;;;;;17.98;9.25;;;11.80;76.90;;;;;;5012646;28;20122;-61
2021/04/19 07:04:17;;;;;;;24.80;8.73;;;11.80;76.80;;;;;;5013086;28;20034;-61
2021/04/19 07:06:44;;;;;;;14.77;6.97;;;11.90;76.80;;;;;;5005749;28;20053;-61
2021/04/19 07:09:34;;;;;;;23.40;12.00;;;11.90;75.90;;;;;;5013066;28;20030;-61
2021/04/19 07:12:08;;;;;;;22.52;9.88;;;11.90;76.10;;;;;;5011811;28;20073;-61
2021/04/19 07:14:37;;;;;;;13.65;6.90;;;11.90;76.20;;;;;;5012768;28;20036;-61
2021/04/19 07:17:05;;;;;;;18.80;8.40;;;11.90;76.00;;;;;;5012859;28;20092;-61
2021/04/19 07:19:31;;;;;;;12.60;7.05;;;12.00;75.70;;;;;;5012099;28;20026;-61
2021/04/19 07:21:57;;;;;;;20.77;10.27;;;12.10;75.40;;;;;;5012665;28;20378;-62
2021/04/19 07:24:27;;;;;;;12.90;6.93;;;12.10;75.20;;;;;;5012798;28;20029;-61
2021/04/19 07:26:54;;;;;;;22.45;11.02;;;12.10;75.00;;;;;;5011901;28;20176;-61
2021/04/19 07:29:20;;;;;;;13.82;5.75;;;12.20;75.00;;;;;;5012598;28;20022;-64
2021/04/19 07:31:57;;;;;;;28.63;11.73;;;12.20;75.10;;;;;;5012523;28;20424;-62
2021/04/19 07:34:28;;;;;;;17.88;8.23;;;12.20;75.70;;;;;;4998450;28;20030;-61
2021/04/19 07:36:59;;;;;;;21.33;10.07;;;12.30;75.60;;;;;;5012406;28;20046;-61
2021/04/19 07:39:30;;;;;;;19.63;10.45;;;12.30;75.60;;;;;;5012488;28;20029;-61
2021/04/19 07:42:00;;;;;;;25.88;11.85;;;12.40;75.80;;;;;;5012792;28;20041;-61
2021/04/19 07:44:39;;;;;;;23.95;10.10;;;12.50;75.80;;;;;;5016027;28;20038;-61
2021/04/19 07:47:26;;;;;;;21.45;10.45;;;12.50;75.90;;;;;;4998193;28;20026;-61
2021/04/19 07:50:22;;;;;;;24.75;10.27;;;12.60;75.70;;;;;;5004130;28;20458;-61
2021/04/19 07:53:00;;;;;;;25.10;11.75;;;12.60;75.40;;;;;;5014303;28;20439;-61
2021/04/19 07:55:30;;;;;;;29.52;12.25;;;12.70;75.60;;;;;;5015463;28;20034;-61
2021/04/19 07:57:57;;;;;;;24.08;11.63;;;12.70;75.80;;;;;;5015996;28;20029;-61
2021/04/19 08:00:32;;;;;;;27.95;12.02;;;12.70;75.90;;;;;;5015765;28;20482;-61
2021/04/19 08:03:05;;;;;;;22.25;11.10;;;12.70;76.10;;;;;;5015060;28;20556;-61
2021/04/19 08:05:32;;;;;;;18.67;10.60;;;12.80;76.10;;;;;;5015771;28;20408;-61
2021/04/19 08:07:58;;;;;;;26.23;10.65;;;12.70;76.00;;;;;;5015179;28;20372;-61
2021/04/19 08:10:24;;;;;;;24.80;13.00;;;12.80;76.20;;;;;;5015709;28;20137;-62
2021/04/19 08:12:59;;;;;;;22.35;9.50;;;12.80;76.10;;;;;;5015695;28;20034;-61
2021/04/19 08:15:25;;;;;;;22.98;12.05;;;12.80;76.10;;;;;;5014900;28;20112;-61
2021/04/19 08:18:02;;;;;;;26.17;14.18;;;12.90;76.20;;;;;;5015419;28;20111;-61
2021/04/19 08:20:28;;;;;;;24.17;10.68;;;13.00;76.50;;;;;;5015765;28;20069;-61
2021/04/19 08:23:07;;;;;;;20.55;9.73;;;13.00;76.40;;;;;;5014906;28;20465;-62
2021/04/19 08:25:38;;;;;;;17.55;10.77;;;13.10;76.60;;;;;;5015496;28;20116;-62
2021/04/19 08:28:09;;;;;;;24.63;12.93;;;13.10;76.30;;;;;;5015511;28;20033;-61
2021/04/19 08:30:36;;;;;;;27.95;12.68;;;13.10;76.10;;;;;;5014475;28;20104;-62
2021/04/19 08:33:01;;;;;;;20.95;9.30;;;13.10;76.20;;;;;;5015554;28;20036;-61
2021/04/19 08:35:29;;;;;;;17.65;6.43;;;13.10;76.40;;;;;;5015270;28;20029;-61
2021/04/19 08:37:57;;;;;;;21.98;12.30;;;13.20;76.60;;;;;;5014658;28;20026;-61
2021/04/19 08:40:25;;;;;;;27.45;12.43;;;13.20;76.70;;;;;;5014896;28;20508;-61
2021/04/19 08:42:53;;;;;;;19.40;10.15;;;13.30;76.60;;;;;;5015143;28;20117;-61
2021/04/19 08:45:19;;;;;;;20.75;10.60;;;13.30;76.30;;;;;;5014442;28;20041;-61
2021/04/19 08:47:45;;;;;;;26.15;12.13;;;13.30;76.30;;;;;;5014933;28;20519;-62
2021/04/19 08:50:16;;;;;;;22.15;11.60;;;13.40;76.50;;;;;;5014389;28;20489;-62
2021/04/19 08:52:42;;;;;;;17.10;9.20;;;13.30;76.40;;;;;;5014645;28;20030;-61
2021/04/19 08:55:09;;;;;;;27.92;12.52;;;13.30;76.30;;;;;;5015001;28;20040;-61
2021/04/19 08:57:34;;;;;;;18.08;9.13;;;13.40;76.70;;;;;;5013733;28;20030;-62
2021/04/19 09:00:00;;;;;;;19.55;11.18;;;13.50;76.60;;;;;;5015045;28;20133;-61
2021/04/19 09:02:26;;;;;;;19.23;11.10;;;13.40;76.40;;;;;;5014961;28;20128;-62
2021/04/19 09:05:10;;;;;;;20.13;6.30;;;13.50;76.30;;;;;;5014013;28;20473;-62
2021/04/19 09:07:41;;;;;;;22.65;11.20;;;13.50;76.40;;;;;;5014741;28;20037;-62
2021/04/19 09:10:13;;;;;;;34.42;12.18;;;13.50;76.50;;;;;;5001225;28;20037;-62
2021/04/19 09:12:40;;;;;;;20.95;10.45;;;13.60;76.50;;;;;;5013895;28;20465;-61
2021/04/19 09:15:17;;;;;;;8.75;4.57;;;13.60;76.40;;;;;;5014344;28;20030;-61
2021/04/19 09:17:59;;;;;;;19.75;6.47;;;13.60;76.70;;;;;;5014544;28;20034;-61
2021/04/19 09:20:43;;;;;;;33.40;9.02;;;13.60;76.90;;;;;;5013692;28;20038;-61
2021/04/19 09:23:26;;;;;;;12.15;7.28;;;13.70;76.90;;;;;;5014361;28;20124;-61
2021/04/19 09:25:54;;;;;;;21.73;10.77;;;13.80;76.80;;;;;;5013799;28;20026;-62
2021/04/19 09:28:41;;;;;;;30.25;12.32;;;13.80;76.70;;;;;;5014234;28;20037;-62
2021/04/19 09:31:08;;;;;;;26.73;11.88;;;13.90;76.50;;;;;;5001922;28;20425;-65
2021/04/19 09:33:35;;;;;;;29.70;15.88;;;14.00;76.90;;;;;;5013598;28;20052;-63
2021/04/19 09:36:01;;;;;;;23.02;13.07;;;14.00;76.80;;;;;;5014169;28;20021;-67
2021/04/19 09:38:33;;;;;;;13.60;7.57;;;14.10;76.70;;;;;;5013918;28;20397;-63
2021/04/19 09:41:02;;;;;;;27.42;13.80;;;14.10;76.50;;;;;;5012956;28;20037;-64
2021/04/19 09:43:40;;;;;;;20.92;10.48;;;14.10;76.40;;;;;;5013743;28;20117;-64
2021/04/19 09:46:06;;;;;;;21.08;11.07;;;14.20;76.30;;;;;;5013697;28;20099;-64
2021/04/19 09:48:33;;;;;;;19.77;10.82;;;14.20;76.30;;;;;;5012894;28;20062;-64
2021/04/19 09:51:04;;;;;;;26.98;14.02;;;14.20;76.10;;;;;;5013244;28;20477;-64
2021/04/19 09:53:30;;;;;;;27.70;11.13;;;14.30;75.90;;;;;;5012698;28;20026;-64
2021/04/19 09:55:57;;;;;;;25.92;14.98;;;14.30;75.90;;;;;;5013041;28;20034;-64
2021/04/19 09:58:24;;;;;;;30.08;16.13;;;14.30;75.90;;;;;;5013145;28;20112;-64
2021/04/19 10:01:00;;;;;;;16.13;8.73;;;14.40;75.50;;;;;;5012520;28;20034;-64
2021/04/19 10:03:26;;;;;;;21.77;10.32;;;14.40;75.30;;;;;;5011876;28;20434;-64
2021/04/19 10:05:54;;;;;;;31.48;16.65;;;14.40;75.20;;;;;;5012536;28;20030;-66
2021/04/19 10:08:22;;;;;;;17.85;8.77;;;14.40;75.30;;;;;;4981153;28;20030;-64
2021/04/19 10:10:55;;;;;;;36.42;20.05;;;14.40;75.50;;;;;;5012888;28;20485;-64
2021/04/19 10:13:31;;;;;;;35.57;18.43;;;14.50;75.40;;;;;;5013026;28;20014;-64
2021/04/19 10:16:09;;;;;;;32.28;17.90;;;14.50;75.40;;;;;;5009652;28;20461;-64
2021/04/19 10:18:37;;;;;;;34.05;16.30;;;14.40;75.10;;;;;;5012878;28;20065;-64
2021/04/19 10:21:04;;;;;;;28.80;13.80;;;14.40;75.00;;;;;;5013294;28;20453;-64
2021/04/19 10:23:41;;;;;;;36.53;20.05;;;14.50;75.20;;;;;;5012534;28;20431;-64
2021/04/19 10:26:08;;;;;;;46.17;23.92;;;14.50;75.10;;;;;;5013516;28;20030;-64
2021/04/19 10:28:37;;;;;;;35.88;19.05;;;14.60;74.90;;;;;;5012401;28;20030;-63
2021/04/19 10:31:20;;;;;;;29.83;13.77;;;14.50;74.80;;;;;;5012797;28;20044;-62
2021/04/19 10:33:48;;;;;;;33.47;17.65;;;14.60;74.90;;;;;;5008749;28;20021;-62
2021/04/19 10:36:20;;;;;;;32.10;17.25;;;14.60;74.60;;;;;;5012555;28;20038;-62
2021/04/19 10:38:57;;;;;;;36.45;19.55;;;14.60;74.50;;;;;;5010716;28;20057;-62
2021/04/19 10:41:33;;;;;;;36.47;20.27;;;14.60;74.30;;;;;;5002890;28;20042;-62
2021/04/19 10:44:00;;;;;;;36.15;18.50;;;14.70;74.10;;;;;;5011564;28;20040;-62
2021/04/19 10:46:31;;;;;;;32.03;15.32;;;14.70;74.00;;;;;;5013008;28;20025;-62
2021/04/19 10:48:59;;;;;;;35.08;17.67;;;14.70;74.40;;;;;;5012780;28;20029;-62
2021/04/19 10:51:30;;;;;;;31.85;15.88;;;14.70;74.50;;;;;;5012248;28;20117;-62
2021/04/19 10:53:59;;;;;;;38.50;19.73;;;14.80;74.30;;;;;;5012638;28;20030;-61
2021/04/19 10:56:25;;;;;;;36.63;17.95;;;14.70;74.20;;;;;;5012454;28;20038;-62
2021/04/19 10:58:57;;;;;;;33.47;16.27;;;14.80;73.90;;;;;;5012097;28;20155;-62
2021/04/19 11:01:27;;;;;;;32.88;17.20;;;14.80;73.80;;;;;;5012317;28;20358;-62
2021/04/19 11:03:53;;;;;;;32.92;16.30;;;14.80;73.90;;;;;;5011074;28;20038;-62
2021/04/19 11:06:20;;;;;;;30.70;14.18;;;14.80;73.60;;;;;;5011612;28;20060;-61
2021/04/19 11:08:51;;;;;;;36.15;14.75;;;14.80;73.60;;;;;;5011972;28;20117;-62
2021/04/19 11:11:31;;;;;;;35.72;17.85;;;14.90;74.00;;;;;;5011498;28;20038;-62
2021/04/19 11:14:16;;;;;;;31.88;14.48;;;14.90;73.40;;;;;;5009533;28;20056;-62
2021/04/19 11:16:54;;;;;;;36.72;18.50;;;14.90;73.30;;;;;;5013634;28;20033;-62
2021/04/19 11:19:44;;;;;;;28.25;13.52;;;15.00;73.20;;;;;;5011974;28;20049;-62
2021/04/19 11:22:28;;;;;;;21.95;10.90;;;15.00;73.00;;;;;;5013855;28;20539;-62
2021/04/19 11:25:24;;;;;;;32.13;13.55;;;15.00;72.90;;;;;;5015416;28;20026;-62
2021/04/19 11:28:13;;;;;;;27.48;14.57;;;15.10;73.10;;;;;;5011188;28;20040;-62
2021/04/19 11:30:39;;;;;;;32.88;15.80;;;15.10;72.90;;;;;;5015643;28;20022;-62
2021/04/19 11:33:25;;;;;;;27.20;14.90;;;15.20;72.90;;;;;;5015286;28;20430;-62
2021/04/19 11:36:01;;;;;;;35.67;17.38;;;15.20;73.00;;;;;;5016138;28;20052;-62
2021/04/19 11:38:27;;;;;;;32.53;15.93;;;15.30;72.90;;;;;;5016417;28;20040;-62
2021/04/19 11:41:02;;;;;;;28.20;13.63;;;15.30;72.80;;;;;;5015310;28;20503;-62
2021/04/19 11:43:32;;;;;;;22.45;11.45;;;15.40;72.70;;;;;;5016124;28;20034;-62
2021/04/19 11:46:10;;;;;;;29.65;11.20;;;15.40;73.30;;;;;;5015315;28;20104;-62
2021/04/19 11:48:39;;;;;;;29.50;15.88;;;15.50;73.50;;;;;;5015973;28;20087;-62
2021/04/19 11:51:10;;;;;;;26.75;13.30;;;15.50;73.00;;;;;;5016081;28;20037;-62
2021/04/19 11:53:37;;;;;;;30.75;15.20;;;15.50;72.90;;;;;;5015328;28;20022;-62
2021/04/19 11:56:05;;;;;;;28.50;16.02;;;15.60;72.60;;;;;;5015856;28;20442;-62
2021/04/19 11:58:33;;;;;;;30.73;13.27;;;15.70;72.70;;;;;;5015941;28;20034;-62
2021/04/19 12:00:59;;;;;;;24.45;11.70;;;15.70;72.30;;;;;;5014996;28;20053;-62
2021/04/19 12:03:25;;;;;;;23.13;10.55;;;15.80;72.40;;;;;;5015690;28;20029;-62
2021/04/19 12:05:51;;;;;;;26.00;12.25;;;15.80;73.00;;;;;;5015556;28;20098;-62
2021/04/19 12:08:18;;;;;;;34.45;19.02;;;15.80;72.80;;;;;;4997345;28;20058;-66
2021/04/19 12:10:44;;;;;;;32.60;16.70;;;15.90;72.50;;;;;;5015344;28;20101;-64
2021/04/19 12:13:16;;;;;;;38.05;17.75;;;15.90;72.20;;;;;;5015450;28;20061;-67
2021/04/19 12:15:42;;;;;;;35.60;18.48;;;15.90;71.30;;;;;;5014749;28;20404;-64
2021/04/19 12:18:09;;;;;;;33.72;16.58;;;16.10;71.10;;;;;;5015229;28;20022;-64
2021/04/19 12:20:35;;;;;;;39.58;18.60;;;16.10;70.80;;;;;;5012784;28;20048;-64
2021/04/19 12:23:01;;;;;;;41.88;18.27;;;16.20;70.70;;;;;;5006715;28;21275;-64
2021/04/19 12:25:27;;;;;;;38.45;17.08;;;16.20;70.20;;;;;;5014748;28;20064;-64
2021/04/19 12:27:54;;;;;;;34.38;16.00;;;16.20;70.00;;;;;;5014317;28;20126;-64
2021/04/19 12:30:20;;;;;;;38.33;15.77;;;16.30;70.40;;;;;;5013986;28;20377;-64
2021/04/19 12:32:45;;;;;;;39.28;17.67;;;16.30;70.30;;;;;;4997213;28;20370;-67
2021/04/19 12:35:11;;;;;;;40.55;19.15;;;16.30;70.10;;;;;;5013445;28;20080;-67
2021/04/19 12:37:37;;;;;;;43.67;21.13;;;16.40;70.00;;;;;;5014780;28;20096;-67
2021/04/19 12:40:03;;;;;;;43.22;19.05;;;16.40;70.00;;;;;;5014948;28;20026;-67
2021/04/19 12:42:29;;;;;;;37.63;17.77;;;16.50;70.00;;;;;;5014745;28;20100;-67
2021/04/19 12:44:55;;;;;;;36.70;16.73;;;16.50;69.90;;;;;;5014914;28;20416;-64
2021/04/19 12:47:21;;;;;;;41.63;19.33;;;16.60;69.60;;;;;;5015060;28;20075;-64
2021/04/19 12:49:46;;;;;;;36.30;18.75;;;16.60;69.50;;;;;;5010614;28;20049;-62